createdAt,value
2022-08-03T00:00:26.730Z,100
2022-08-03T01:40:48.259Z,100
2022-08-03T01:50:50.438Z,100
2022-08-03T02:00:52.197Z,100
2022-08-03T02:10:54.511Z,100
2022-08-03T02:20:57.030Z,100
2022-08-03T02:41:01.566Z,100
2022-08-03T02:51:03.877Z,100
2022-08-03T03:31:11.882Z,100
2022-08-03T03:41:14.431Z,100
2022-08-03T03:51:16.569Z,100
2022-08-03T04:01:19.126Z,100
2022-08-03T04:11:27.479Z,100
2022-08-03T04:21:24.005Z,100
2022-08-03T04:31:26.267Z,100
2022-08-03T04:41:28.156Z,100
2022-08-03T04:51:30.323Z,100
2022-08-03T05:01:32.533Z,100
2022-08-03T05:11:34.207Z,100
2022-08-03T05:21:41.642Z,100
2022-08-03T05:31:38.735Z,100
2022-08-03T05:41:40.864Z,100
2022-08-03T05:51:43.088Z,100
2022-08-03T06:01:45.823Z,100
2022-08-03T06:11:48.303Z,100
2022-08-03T06:21:50.051Z,100
2022-08-03T06:41:54.372Z,100
2022-08-03T07:01:58.698Z,100
2022-08-03T07:12:01.153Z,100
2022-08-03T07:22:04.276Z,100
2022-08-03T07:32:05.089Z,100
2022-08-03T07:42:07.276Z,100
2022-08-03T07:52:09.396Z,100
2022-08-03T08:02:11.590Z,100
2022-08-03T08:12:15.068Z,100
2022-08-03T08:22:16.052Z,100
2022-08-03T08:32:17.927Z,100
2022-08-03T08:42:19.832Z,100
2022-08-03T08:52:22.206Z,100
2022-08-03T09:02:24.285Z,100
2022-08-03T09:12:41.370Z,100
2022-08-03T09:32:29.954Z,100
2022-08-03T09:42:31.604Z,100
2022-08-03T09:52:38.535Z,100
2022-08-03T10:12:36.734Z,100
2022-08-03T10:22:39.163Z,100
2022-08-03T10:32:41.765Z,100
2022-08-03T10:42:43.771Z,100
2022-08-03T10:52:49.125Z,100
2022-08-03T11:02:47.953Z,100
2022-08-03T11:12:50.123Z,100
2022-08-03T11:22:52.395Z,100
2022-08-03T11:32:54.916Z,100
2022-08-03T11:42:56.869Z,100
2022-08-03T11:52:58.990Z,100
2022-08-03T12:03:01.395Z,100
2022-08-03T12:23:06.234Z,100
2022-08-03T12:43:10.406Z,100
2022-08-03T12:53:12.955Z,100
2022-08-03T13:03:38.710Z,100
2022-08-03T13:13:16.878Z,100
2022-08-03T13:23:22.138Z,100
2022-08-03T13:33:21.260Z,100
2022-08-03T13:43:23.347Z,100
2022-08-03T13:53:25.035Z,100
2022-08-03T14:03:26.982Z,100
2022-08-03T14:13:29.257Z,100
2022-08-03T14:23:31.035Z,100
2022-08-03T14:33:33.139Z,100
2022-08-03T14:43:35.036Z,100
2022-08-03T14:53:37.534Z,100
2022-08-03T15:13:41.559Z,100
2022-08-03T15:23:44.126Z,100
2022-08-03T15:23:51.031Z,100
2022-08-03T15:33:53.440Z,100
2022-08-03T15:43:55.446Z,100
2022-08-03T15:53:57.765Z,97
2022-08-03T16:03:59.820Z,95
2022-08-03T16:24:04.343Z,99
2022-08-03T16:34:06.410Z,100
2022-08-03T16:44:10.014Z,96
2022-08-03T16:54:12.365Z,93
2022-08-03T17:04:13.420Z,94
2022-08-03T17:14:15.848Z,93
2022-08-03T17:24:18.726Z,89
2022-08-03T17:34:19.702Z,93
2022-08-03T17:44:30.225Z,96
2022-08-03T18:04:29.569Z,94
2022-08-03T18:14:29.038Z,97
2022-08-03T18:24:31.028Z,100
2022-08-03T18:34:34.185Z,100
2022-08-03T18:44:37.887Z,100
2022-08-03T18:54:46.354Z,100
2022-08-03T19:04:38.472Z,100
2022-08-03T19:14:41.584Z,100
2022-08-03T19:24:42.300Z,100
2022-08-03T19:34:46.681Z,100
2022-08-03T19:44:46.354Z,100
2022-08-03T19:54:53.489Z,100
2022-08-03T20:04:50.927Z,100
2022-08-03T20:14:52.787Z,100
2022-08-03T20:24:54.509Z,100
2022-08-03T20:34:56.777Z,100
2022-08-03T20:45:04.875Z,100
2022-08-03T20:55:02.040Z,100
2022-08-03T21:05:09.251Z,100
2022-08-03T21:15:04.696Z,100
2022-08-03T21:25:07.354Z,100
2022-08-03T21:45:16.679Z,100
2022-08-03T21:55:18.227Z,100
2022-08-03T22:05:16.320Z,100
2022-08-03T22:15:17.776Z,100
2022-08-03T22:25:20.403Z,100
2022-08-03T22:35:22.940Z,100
2022-08-03T22:46:06.269Z,100
2022-08-03T22:55:27.165Z,100
2022-08-03T23:05:59.990Z,100
2022-08-03T23:15:30.791Z,100
2022-08-03T23:25:32.643Z,100
2022-08-03T23:36:18.688Z,100
2022-08-03T23:45:37.231Z,100
2022-08-03T23:55:39.214Z,100
